createdAt,value
2018-08-13T00:01:48.153Z,56.80
2018-08-13T00:07:03.934Z,57.00
2018-08-13T00:12:19.198Z,57.40
2018-08-13T00:17:34.463Z,56.80
2018-08-13T00:22:51.624Z,57.10
2018-08-13T00:33:22.567Z,57.30
2018-08-13T00:38:36.332Z,57.30
2018-08-13T00:49:16.595Z,57.60
2018-08-13T00:54:26.040Z,58.20
2018-08-13T01:05:08.628Z,58.50
2018-08-13T01:10:26.679Z,58.50
2018-08-13T01:15:44.670Z,58.90
2018-08-13T01:20:56.760Z,58.90
2018-08-13T01:31:39.229Z,58.90
2018-08-13T01:42:10.611Z,59.40
2018-08-13T01:47:26.944Z,59.70
2018-08-13T01:52:35.406Z,59.50
2018-08-13T01:57:58.628Z,59.80
2018-08-13T02:03:14.013Z,60.20
2018-08-13T02:08:27.351Z,59.60
2018-08-13T02:13:36.321Z,60.30
2018-08-13T02:24:05.912Z,61.30
2018-08-13T02:29:19.271Z,60.90
2018-08-13T02:34:30.887Z,61.40
2018-08-13T02:39:44.451Z,61.30
2018-08-13T02:44:56.445Z,61.50
2018-08-13T02:50:18.386Z,61.50
2018-08-13T02:55:37.664Z,62.00
2018-08-13T03:06:13.630Z,61.80
2018-08-13T03:11:30.211Z,62.00
2018-08-13T03:16:39.057Z,62.50
2018-08-13T03:21:49.387Z,62.70
2018-08-13T03:27:01.034Z,63.40
2018-08-13T03:32:15.088Z,62.90
2018-08-13T03:37:30.015Z,63.50
2018-08-13T03:42:44.599Z,63.30
2018-08-13T03:48:14.158Z,63.50
2018-08-13T03:53:24.721Z,63.80
2018-08-13T03:58:40.300Z,63.90
2018-08-13T04:03:52.356Z,63.90
2018-08-13T04:09:02.299Z,64.00
2018-08-13T04:14:16.270Z,64.30
2018-08-13T04:24:54.181Z,65.20
2018-08-13T04:29:58.413Z,65.20
2018-08-13T04:35:01.558Z,65.60
2018-08-13T04:40:07.558Z,65.10
2018-08-13T04:45:11.060Z,66.00
2018-08-13T04:50:14.220Z,65.90
2018-08-13T04:55:17.757Z,66.30
2018-08-13T05:00:20.911Z,66.00
2018-08-13T05:05:24.065Z,66.30
2018-08-13T05:10:27.256Z,66.10
2018-08-13T05:15:30.410Z,66.40
2018-08-13T05:26:21.615Z,66.70
2018-08-13T05:31:36.933Z,66.80
2018-08-13T05:36:40.446Z,67.30
2018-08-13T05:41:43.826Z,67.10
2018-08-13T05:46:47.165Z,67.40
2018-08-13T05:51:51.062Z,67.00
2018-08-13T05:56:54.523Z,67.00
2018-08-13T06:01:58.072Z,67.10
2018-08-13T06:07:02.712Z,66.70
2018-08-13T06:12:06.413Z,65.90
2018-08-13T06:17:10.163Z,65.70
2018-08-13T06:22:13.551Z,65.30
2018-08-13T06:27:16.957Z,64.50
2018-08-13T06:32:22.043Z,64.20
2018-08-13T06:37:27.922Z,63.00
2018-08-13T06:42:31.121Z,62.50
2018-08-13T06:47:34.269Z,61.90
2018-08-13T06:52:37.427Z,61.00
2018-08-13T06:57:40.605Z,60.40
2018-08-13T07:02:43.733Z,59.80
2018-08-13T07:07:47.593Z,59.50
2018-08-13T07:12:50.728Z,59.10
2018-08-13T07:17:53.904Z,58.90
2018-08-13T07:22:57.049Z,57.90
2018-08-13T07:28:00.303Z,57.60
2018-08-13T07:33:03.384Z,56.90
2018-08-13T07:38:06.540Z,56.20
2018-08-13T07:43:09.778Z,56.10
2018-08-13T07:48:12.929Z,56.00
2018-08-13T07:53:16.082Z,55.50
2018-08-13T07:58:19.264Z,54.90
2018-08-13T08:03:22.404Z,54.30
2018-08-13T08:08:26.420Z,53.90
2018-08-13T08:13:29.574Z,53.20
2018-08-13T08:18:32.804Z,53.20
2018-08-13T08:23:35.953Z,52.50
2018-08-13T08:28:39.112Z,52.20
2018-08-13T08:33:43.824Z,52.20
2018-08-13T08:38:51.693Z,52.30
2018-08-13T08:43:57.736Z,51.60
2018-08-13T08:49:03.927Z,51.10
2018-08-13T08:54:11.677Z,50.60
2018-08-13T08:59:17.176Z,50.00
2018-08-13T09:04:22.524Z,49.50
2018-08-13T09:09:32.870Z,50.00
2018-08-13T09:14:38.825Z,49.20
2018-08-13T09:19:54.725Z,48.80
2018-08-13T09:25:10.157Z,48.30
2018-08-13T09:30:25.382Z,48.00
2018-08-13T09:35:33.015Z,47.70
2018-08-13T09:40:39.710Z,47.40
2018-08-13T09:45:44.901Z,46.90
2018-08-13T09:50:50.240Z,46.60
2018-08-13T09:55:55.315Z,45.80
2018-08-13T10:01:06.290Z,45.10
2018-08-13T10:06:14.795Z,44.80
2018-08-13T10:11:21.225Z,43.80
2018-08-13T10:16:25.723Z,43.80
2018-08-13T10:21:37.389Z,43.80
2018-08-13T10:26:42.352Z,41.80
2018-08-13T10:31:51.022Z,41.60
2018-08-13T10:37:01.494Z,40.70
2018-08-13T10:42:10.575Z,39.80
2018-08-13T10:47:19.084Z,37.60
2018-08-13T10:52:25.929Z,38.80
2018-08-13T10:57:33.033Z,38.40
2018-08-13T11:02:42.963Z,38.70
2018-08-13T11:07:54.154Z,37.90
2018-08-13T11:13:01.401Z,38.10
2018-08-13T11:18:09.406Z,37.40
2018-08-13T11:23:16.297Z,37.40
2018-08-13T11:28:21.896Z,36.70
2018-08-13T11:33:28.197Z,38.10
2018-08-13T11:38:33.827Z,38.50
2018-08-13T11:43:40.639Z,37.60
2018-08-13T11:48:47.546Z,36.30
2018-08-13T11:53:53.197Z,37.10
2018-08-13T11:58:58.792Z,36.40
2018-08-13T12:04:06.809Z,36.10
2018-08-13T12:09:14.040Z,35.50
2018-08-13T12:14:19.403Z,35.10
2018-08-13T12:19:24.547Z,35.80
2018-08-13T12:24:29.773Z,35.50
2018-08-13T12:29:34.893Z,36.40
2018-08-13T12:34:39.554Z,35.70
2018-08-13T12:39:47.513Z,34.90
2018-08-13T12:44:52.807Z,34.80
2018-08-13T12:50:01.045Z,34.30
2018-08-13T13:02:45.008Z,35.20
2018-08-13T13:07:53.282Z,33.70
2018-08-13T13:13:00.131Z,33.90
2018-08-13T13:18:09.878Z,35.10
2018-08-13T13:23:21.242Z,34.40
2018-08-13T13:28:31.675Z,35.00
2018-08-13T13:33:38.547Z,34.30
2018-08-13T13:38:43.162Z,34.50
2018-08-13T13:43:49.596Z,34.60
2018-08-13T13:48:58.023Z,34.70
2018-08-13T13:54:05.297Z,34.90
2018-08-13T13:59:09.882Z,35.60
2018-08-13T14:04:15.922Z,34.70
2018-08-13T14:09:22.332Z,35.40
2018-08-13T14:14:27.301Z,34.80
2018-08-13T14:19:32.081Z,35.40
2018-08-13T14:24:46.362Z,36.00
2018-08-13T14:29:52.149Z,36.20
2018-08-13T14:34:57.024Z,37.10
2018-08-13T14:40:03.272Z,37.60
2018-08-13T14:45:10.626Z,38.40
2018-08-13T14:50:20.742Z,38.40
2018-08-13T14:55:26.817Z,38.40
2018-08-13T15:00:40.969Z,38.30
2018-08-13T15:05:47.620Z,38.80
2018-08-13T15:10:52.453Z,38.80
2018-08-13T15:15:57.537Z,39.00
2018-08-13T15:21:03.751Z,39.40
2018-08-13T15:26:13.975Z,39.80
2018-08-13T15:31:19.357Z,40.00
2018-08-13T15:36:25.349Z,40.20
2018-08-13T15:41:34.377Z,40.00
2018-08-13T15:46:40.413Z,39.80
2018-08-13T15:51:44.590Z,38.80
2018-08-13T15:56:50.904Z,39.20
2018-08-13T16:01:55.730Z,39.70
2018-08-13T16:07:01.246Z,39.90
2018-08-13T16:12:06.284Z,40.60
2018-08-13T16:17:12.552Z,42.40
2018-08-13T16:22:17.234Z,45.30
2018-08-13T16:27:24.907Z,48.20
2018-08-13T16:32:28.263Z,49.30
2018-08-13T16:37:32.121Z,52.30
2018-08-13T16:42:36.431Z,54.70
2018-08-13T16:47:39.751Z,54.80
2018-08-13T16:52:44.175Z,56.80
2018-08-13T16:57:48.888Z,58.40
2018-08-13T17:02:52.658Z,58.80
2018-08-13T17:07:56.896Z,59.20
2018-08-13T17:13:00.328Z,60.40
2018-08-13T17:18:05.109Z,60.90
2018-08-13T17:23:08.490Z,61.40
2018-08-13T17:28:13.682Z,62.20
2018-08-13T17:33:17.526Z,62.10
2018-08-13T17:38:21.424Z,62.90
2018-08-13T17:43:25.712Z,63.40
2018-08-13T17:48:35.789Z,63.80
2018-08-13T17:53:49.053Z,64.60
2018-08-13T17:59:01.339Z,64.50
2018-08-13T18:04:14.886Z,65.30
2018-08-13T18:09:24.973Z,66.00
2018-08-13T18:14:43.026Z,66.30
2018-08-13T18:19:52.898Z,66.20
2018-08-13T18:25:04.204Z,67.20
2018-08-13T18:30:14.702Z,67.20
2018-08-13T18:35:34.446Z,67.70
2018-08-13T18:45:58.091Z,68.40
2018-08-13T18:51:07.311Z,68.90
2018-08-13T18:56:30.793Z,69.90
2018-08-13T19:02:00.412Z,70.60
2018-08-13T19:07:25.078Z,70.70
2018-08-13T19:12:40.144Z,70.60
2018-08-13T19:17:53.423Z,70.80
2018-08-13T19:23:10.053Z,71.30
2018-08-13T19:28:20.692Z,71.30
2018-08-13T19:33:38.020Z,71.40
2018-08-13T19:38:57.820Z,71.80
2018-08-13T19:44:17.256Z,72.00
2018-08-13T19:49:29.904Z,72.50
2018-08-13T19:54:40.291Z,72.80
2018-08-13T19:59:49.753Z,72.80
2018-08-13T20:05:03.838Z,72.90
2018-08-13T20:10:36.681Z,73.10
2018-08-13T20:15:53.011Z,73.20
2018-08-13T20:21:08.229Z,73.20
2018-08-13T20:26:24.715Z,73.40
2018-08-13T20:37:04.571Z,73.70
2018-08-13T20:42:27.970Z,73.30
2018-08-13T20:47:35.849Z,73.40
2018-08-13T20:53:07.322Z,73.50
2018-08-13T21:09:52.747Z,75.20
2018-08-13T21:15:15.355Z,74.50
2018-08-13T21:20:31.858Z,75.10
2018-08-13T21:26:02.031Z,75.30
2018-08-13T21:38:00.930Z,75.30
2018-08-13T21:43:23.237Z,76.50
2018-08-13T21:48:40.618Z,75.10
2018-08-13T21:53:51.158Z,75.20
2018-08-13T21:59:07.475Z,75.40
2018-08-13T22:04:24.311Z,75.00
2018-08-13T22:09:42.143Z,74.70
2018-08-13T22:15:08.999Z,75.30
2018-08-13T22:20:20.763Z,75.90
2018-08-13T22:26:07.412Z,74.90
2018-08-13T22:36:35.059Z,74.80
2018-08-13T22:41:52.894Z,75.20
2018-08-13T22:52:51.689Z,76.10
2018-08-13T23:03:40.970Z,75.40
2018-08-13T23:09:05.549Z,76.40
2018-08-13T23:14:26.269Z,76.50
2018-08-13T23:19:59.352Z,76.00
2018-08-13T23:30:39.115Z,76.00
2018-08-13T23:35:59.595Z,76.60
2018-08-13T23:41:33.019Z,76.90
2018-08-13T23:57:35.633Z,76.70
